Time;durP1;ratioP1;P1;durP2;ratioP2;P2;SDS_P1;SDS_P2;PMS_P1;PMS_P2;Temp;Humidity;BMP_temperature;BMP_pressure;BME280_temperature;BME280_humidity;BME280_pressure;Samples;Min_cycle;Max_cycle;Signal;HPM_P1;HPM_P2
2022/08/05 00:00:17;;;;;;;7.23;4.20;;;19.90;99.90;;;;;;5013578;28;20237;-52
2022/08/05 00:02:46;;;;;;;6.73;4.50;;;19.90;99.90;;;;;;5023498;28;20227;-52
2022/08/05 00:05:19;;;;;;;7.40;4.10;;;19.90;99.90;;;;;;5033807;28;20231;-51
2022/08/05 00:08:08;;;;;;;6.70;4.57;;;19.90;99.90;;;;;;5034013;28;20735;-50
2022/08/05 00:10:57;;;;;;;8.27;3.63;;;19.80;99.90;;;;;;5033326;28;20228;-49
2022/08/05 00:13:28;;;;;;;6.90;3.67;;;19.80;99.90;;;;;;5033026;28;20684;-50
2022/08/05 00:16:10;;;;;;;6.63;4.40;;;19.80;99.90;;;;;;5013943;28;20293;-51
2022/08/05 00:18:41;;;;;;;6.33;3.73;;;19.80;99.90;;;;;;5013874;28;20311;-52
2022/08/05 00:21:12;;;;;;;5.37;3.70;;;19.80;99.90;;;;;;5028637;28;20228;-52
2022/08/05 00:23:43;;;;;;;5.60;3.57;;;19.70;99.90;;;;;;5033312;28;20270;-51
2022/08/05 00:26:21;;;;;;;6.03;3.70;;;19.70;99.90;;;;;;5021195;28;20310;-51
2022/08/05 00:28:50;;;;;;;6.53;3.70;;;19.70;99.90;;;;;;5016345;28;20232;-51
2022/08/05 00:31:21;;;;;;;5.70;3.60;;;19.70;99.90;;;;;;5012565;28;20272;-51
2022/08/05 00:34:09;;;;;;;4.90;3.50;;;19.70;99.90;;;;;;5023077;28;20252;-51
2022/08/05 00:36:57;;;;;;;6.30;3.77;;;19.70;99.90;;;;;;5033171;28;20302;-51
2022/08/05 00:39:45;;;;;;;6.53;3.47;;;19.70;99.90;;;;;;5033232;28;20358;-51
2022/08/05 00:42:33;;;;;;;6.87;3.23;;;19.70;99.90;;;;;;5033213;28;20674;-51
2022/08/05 00:45:01;;;;;;;7.20;3.63;;;19.70;99.90;;;;;;5033296;28;20293;-51
2022/08/05 00:47:31;;;;;;;5.20;3.60;;;19.70;99.90;;;;;;5032469;28;20262;-51
2022/08/05 00:50:20;;;;;;;4.27;3.20;;;19.60;99.90;;;;;;5032866;28;20259;-50
2022/08/05 00:52:52;;;;;;;6.73;3.10;;;19.60;99.90;;;;;;5032999;28;20327;-51
2022/08/05 00:55:22;;;;;;;5.00;3.27;;;19.60;99.90;;;;;;5027597;28;20643;-51
2022/08/05 00:58:10;;;;;;;4.60;2.83;;;19.50;99.90;;;;;;5025281;28;20314;-49
2022/08/05 01:00:39;;;;;;;5.77;2.80;;;19.60;99.90;;;;;;5032453;28;20240;-52
2022/08/05 01:03:11;;;;;;;5.50;2.67;;;19.50;99.90;;;;;;5033043;28;20235;-52
2022/08/05 01:05:50;;;;;;;5.63;3.00;;;19.50;99.90;;;;;;5033160;28;20249;-51
2022/08/05 01:08:21;;;;;;;5.90;3.03;;;19.50;99.90;;;;;;5032880;28;20236;-52
2022/08/05 01:11:13;;;;;;;5.77;2.57;;;19.50;99.90;;;;;;5032869;28;20302;-51
2022/08/05 01:14:02;;;;;;;4.27;2.77;;;19.40;99.90;;;;;;5024554;28;20789;-53
2022/08/05 01:16:43;;;;;;;6.63;2.50;;;19.40;99.90;;;;;;5032544;28;20266;-54
2022/08/05 01:19:31;;;;;;;4.90;2.23;;;19.40;99.90;;;;;;5032720;28;20227;-53
2022/08/05 01:22:36;;;;;;;5.10;2.50;;;19.40;99.90;;;;;;5032823;28;20679;-51
2022/08/05 01:25:37;;;;;;;3.40;2.00;;;19.40;99.90;;;;;;5023920;28;20232;-52
2022/08/05 01:28:17;;;;;;;5.00;2.40;;;19.40;99.90;;;;;;5011572;28;20730;-52
2022/08/05 01:30:52;;;;;;;4.70;2.40;;;19.50;99.90;;;;;;5031608;28;20232;-53
2022/08/05 01:33:28;;;;;;;2.57;2.17;;;19.50;99.90;;;;;;5032561;28;20330;-52
2022/08/05 01:36:09;;;;;;;3.97;2.30;;;19.50;99.90;;;;;;5032924;28;20239;-52
2022/08/05 01:38:46;;;;;;;5.73;2.40;;;19.40;99.90;;;;;;5032194;28;20235;-53
2022/08/05 01:41:21;;;;;;;4.80;2.20;;;19.40;99.90;;;;;;5033918;28;20680;-52
2022/08/05 01:43:54;;;;;;;8.97;2.50;;;19.40;99.90;;;;;;5028281;28;20281;-52
2022/08/05 01:46:26;;;;;;;2.53;1.87;;;19.30;99.90;;;;;;5036495;28;20302;-52
2022/08/05 01:49:18;;;;;;;4.53;2.40;;;19.30;99.90;;;;;;5036221;28;20266;-52
2022/08/05 01:51:56;;;;;;;3.37;2.03;;;19.20;99.90;;;;;;5036163;28;20243;-53
2022/08/05 01:54:29;;;;;;;3.63;2.10;;;19.20;99.90;;;;;;5030226;28;20299;-52
2022/08/05 01:57:00;;;;;;;6.47;2.50;;;19.20;99.90;;;;;;5026601;28;20286;-53
2022/08/05 01:59:51;;;;;;;4.37;2.37;;;19.10;99.90;;;;;;5035929;28;20689;-53
2022/08/05 02:02:21;;;;;;;4.53;2.10;;;19.00;99.90;;;;;;5035550;28;20243;-53
2022/08/05 02:04:59;;;;;;;5.07;2.47;;;19.00;99.90;;;;;;5036204;28;20266;-53
2022/08/05 02:07:31;;;;;;;5.60;2.27;;;19.00;99.90;;;;;;5036060;28;20273;-53
2022/08/05 02:10:02;;;;;;;4.03;2.23;;;18.90;99.90;;;;;;5035530;28;20238;-53
2022/08/05 02:12:42;;;;;;;3.47;2.30;;;18.90;99.90;;;;;;5035434;28;20227;-52
2022/08/05 02:15:24;;;;;;;8.80;2.60;;;18.80;99.90;;;;;;5029081;28;20318;-54
2022/08/05 02:18:04;;;;;;;7.53;2.87;;;18.70;99.90;;;;;;5035809;28;20626;-54
2022/08/05 02:20:56;;;;;;;6.10;2.67;;;18.60;99.90;;;;;;5035902;28;20332;-53
2022/08/05 02:23:32;;;;;;;3.37;2.43;;;18.60;99.90;;;;;;5035913;28;20249;-52
2022/08/05 02:26:06;;;;;;;6.13;2.90;;;18.50;99.90;;;;;;5021580;28;20233;-53
2022/08/05 02:28:42;;;;;;;4.07;2.57;;;18.50;99.90;;;;;;5022230;28;20235;-54
2022/08/05 02:31:17;;;;;;;5.03;2.50;;;18.60;99.90;;;;;;5035066;28;20615;-54
2022/08/05 02:33:52;;;;;;;6.37;2.40;;;18.60;99.90;;;;;;5035112;28;20246;-53
2022/08/05 02:36:26;;;;;;;5.33;2.70;;;18.60;99.90;;;;;;5035726;28;20334;-53
2022/08/05 02:39:00;;;;;;;4.73;2.97;;;18.50;99.90;;;;;;5035575;28;20588;-55
2022/08/05 02:41:30;;;;;;;5.77;3.00;;;18.50;99.90;;;;;;5035034;28;20566;-53
2022/08/05 02:44:19;;;;;;;6.93;2.60;;;18.40;99.90;;;;;;5028568;28;20782;-54
2022/08/05 02:46:50;;;;;;;4.73;2.67;;;18.40;99.90;;;;;;5035071;28;20255;-54
2022/08/05 02:49:30;;;;;;;4.57;3.00;;;18.50;99.90;;;;;;5035059;28;20334;-53
2022/08/05 02:52:07;;;;;;;5.37;3.00;;;18.40;99.90;;;;;;5035240;28;20230;-54
2022/08/05 02:54:38;;;;;;;4.70;2.90;;;18.40;99.90;;;;;;5034345;28;20223;-54
2022/08/05 02:57:13;;;;;;;5.70;2.80;;;18.40;99.90;;;;;;5031334;28;20222;-53
2022/08/05 03:00:02;;;;;;;5.43;3.00;;;18.30;99.90;;;;;;5032156;28;20232;-52
2022/08/05 03:02:36;;;;;;;6.17;3.67;;;18.20;99.90;;;;;;5014614;28;20595;-54
2022/08/05 03:05:08;;;;;;;8.77;3.77;;;18.20;99.90;;;;;;5015352;28;20729;-54
2022/08/05 03:07:39;;;;;;;4.47;3.30;;;18.20;99.90;;;;;;5015151;28;20591;-55
2022/08/05 03:10:27;;;;;;;4.40;3.20;;;18.20;99.90;;;;;;5014924;28;20243;-53
2022/08/05 03:12:55;;;;;;;5.10;3.60;;;18.20;99.90;;;;;;5027742;28;20238;-53
2022/08/05 03:15:22;;;;;;;6.30;3.63;;;18.20;99.90;;;;;;5028662;28;20227;-54
2022/08/05 03:17:54;;;;;;;6.03;3.50;;;18.10;99.90;;;;;;5034883;28;20325;-54
2022/08/05 03:20:26;;;;;;;6.00;3.13;;;18.10;99.90;;;;;;5034337;28;20231;-54
2022/08/05 03:22:55;;;;;;;4.40;3.33;;;18.20;99.90;;;;;;5034661;28;20265;-54
2022/08/05 03:25:25;;;;;;;5.83;3.80;;;18.10;99.90;;;;;;5023327;28;20224;-53
2022/08/05 03:28:02;;;;;;;6.77;3.63;;;18.10;99.90;;;;;;5022994;28;20245;-53
2022/08/05 03:30:32;;;;;;;5.70;3.83;;;18.00;99.90;;;;;;5033828;28;20246;-53
2022/08/05 03:33:04;;;;;;;4.67;3.90;;;18.00;99.90;;;;;;5034184;28;20330;-54
2022/08/05 03:35:35;;;;;;;6.10;3.60;;;18.00;99.90;;;;;;5033685;28;20309;-54
2022/08/05 03:38:11;;;;;;;5.87;3.83;;;17.90;99.90;;;;;;5034230;28;20256;-54
2022/08/05 03:40:41;;;;;;;5.83;4.50;;;17.80;99.90;;;;;;5034223;28;20287;-54
2022/08/05 03:43:15;;;;;;;6.83;4.20;;;17.80;99.90;;;;;;5033944;28;20237;-53
2022/08/05 03:46:04;;;;;;;6.83;4.00;;;17.80;99.90;;;;;;5034017;28;20812;-53
2022/08/05 03:48:36;;;;;;;6.53;4.43;;;17.70;99.90;;;;;;5033808;28;20271;-53
2022/08/05 03:51:12;;;;;;;5.77;4.00;;;17.70;99.90;;;;;;5034371;28;20249;-53
2022/08/05 03:54:06;;;;;;;6.27;3.90;;;17.70;99.90;;;;;;5031390;28;20229;-54
2022/08/05 03:56:55;;;;;;;5.90;3.97;;;17.60;99.90;;;;;;5023838;28;20579;-52
2022/08/05 03:59:33;;;;;;;5.83;4.30;;;17.60;99.90;;;;;;5033539;28;20240;-52
2022/08/05 04:02:16;;;;;;;5.53;4.30;;;17.60;99.90;;;;;;5033254;28;20320;-53
2022/08/05 04:05:09;;;;;;;5.07;4.00;;;17.60;99.90;;;;;;5032774;28;20224;-53
2022/08/05 04:07:38;;;;;;;5.50;4.40;;;17.60;99.90;;;;;;5033454;28;20235;-53
2022/08/05 04:10:27;;;;;;;7.40;5.07;;;17.60;99.90;;;;;;5032740;28;20236;-53
2022/08/05 04:13:00;;;;;;;6.67;4.83;;;17.60;99.90;;;;;;5027812;28;20568;-53
2022/08/05 04:15:31;;;;;;;5.67;4.97;;;17.60;99.90;;;;;;5026895;28;20228;-53
2022/08/05 04:18:03;;;;;;;7.37;5.20;;;17.70;99.90;;;;;;5033728;28;20239;-53
2022/08/05 04:20:35;;;;;;;5.67;5.07;;;17.70;99.90;;;;;;5030146;28;20234;-53
2022/08/05 04:23:04;;;;;;;7.20;5.30;;;17.70;99.90;;;;;;5020634;28;20236;-53
2022/08/05 04:25:32;;;;;;;6.20;4.70;;;17.70;99.90;;;;;;5025172;28;20252;-53
2022/08/05 04:28:21;;;;;;;7.10;5.20;;;17.70;99.90;;;;;;5033568;28;20224;-53
2022/08/05 04:30:58;;;;;;;6.50;4.67;;;17.70;99.90;;;;;;5032232;28;20243;-53
2022/08/05 04:33:28;;;;;;;9.13;5.50;;;17.80;99.90;;;;;;5031385;28;20711;-54
2022/08/05 04:36:18;;;;;;;6.30;5.40;;;17.80;99.90;;;;;;5033243;28;20226;-53
2022/08/05 04:39:06;;;;;;;8.37;5.83;;;17.80;99.90;;;;;;5033683;28;20681;-52
2022/08/05 04:41:34;;;;;;;7.10;5.47;;;17.80;99.90;;;;;;5033201;28;20550;-53
2022/08/05 04:44:04;;;;;;;6.13;5.53;;;17.80;99.90;;;;;;5024938;28;20225;-52
2022/08/05 04:46:37;;;;;;;7.80;5.93;;;17.90;99.90;;;;;;5032736;28;20252;-53
2022/08/05 04:49:05;;;;;;;8.47;5.13;;;17.90;99.90;;;;;;5033501;28;20284;-53
2022/08/05 04:51:43;;;;;;;7.27;5.27;;;17.90;99.90;;;;;;5033073;28;20254;-52
2022/08/05 04:54:13;;;;;;;6.60;5.10;;;18.00;99.90;;;;;;5029023;28;20270;-53
2022/08/05 04:56:41;;;;;;;7.77;6.00;;;18.00;99.90;;;;;;5020430;28;20224;-53
2022/08/05 04:59:11;;;;;;;8.40;6.20;;;18.10;99.90;;;;;;5018099;28;20267;-53
2022/08/05 05:01:53;;;;;;;7.63;6.83;;;18.10;99.90;;;;;;5026092;28;20272;-54
2022/08/05 05:04:41;;;;;;;7.77;6.27;;;18.10;99.90;;;;;;5032777;28;20248;-53
2022/08/05 05:07:18;;;;;;;7.60;6.03;;;18.00;99.90;;;;;;5032699;28;20225;-53
2022/08/05 05:09:56;;;;;;;7.53;5.67;;;18.00;99.90;;;;;;5032579;28;20262;-52
2022/08/05 05:12:24;;;;;;;5.70;5.10;;;18.00;99.90;;;;;;5032960;28;20224;-53
2022/08/05 05:14:54;;;;;;;7.30;5.43;;;18.10;99.90;;;;;;5029473;28;20258;-52
2022/08/05 05:17:23;;;;;;;8.87;5.97;;;18.00;99.90;;;;;;5035259;28;20257;-53
2022/08/05 05:20:12;;;;;;;7.10;5.40;;;18.10;99.90;;;;;;5034427;28;20217;-53
2022/08/05 05:22:42;;;;;;;5.87;4.80;;;18.10;99.90;;;;;;5033819;28;20225;-53
2022/08/05 05:25:12;;;;;;;6.67;5.30;;;18.20;99.90;;;;;;5031595;28;20233;-51
2022/08/05 05:27:44;;;;;;;6.70;5.50;;;18.20;99.90;;;;;;5034524;28;20585;-52
2022/08/05 05:30:21;;;;;;;6.33;5.40;;;18.20;99.90;;;;;;5036084;28;20232;-53
2022/08/05 05:32:59;;;;;;;8.17;5.93;;;18.20;99.90;;;;;;5033451;28;20315;-53
2022/08/05 05:35:43;;;;;;;8.53;5.50;;;18.20;99.90;;;;;;5033783;28;20302;-53
2022/08/05 05:38:13;;;;;;;7.93;5.70;;;18.10;99.90;;;;;;5036422;28;20353;-53
2022/08/05 05:40:49;;;;;;;7.07;6.17;;;18.20;99.90;;;;;;5034523;28;20224;-53
2022/08/05 05:43:19;;;;;;;7.03;5.40;;;18.10;99.90;;;;;;5031390;28;20297;-53
2022/08/05 05:46:07;;;;;;;7.73;5.23;;;18.10;99.90;;;;;;5035547;28;20249;-53
2022/08/05 05:48:43;;;;;;;7.73;5.20;;;18.10;99.90;;;;;;5033896;28;20224;-53
2022/08/05 05:51:21;;;;;;;6.67;5.40;;;18.20;99.90;;;;;;5035814;28;20242;-53
2022/08/05 05:53:52;;;;;;;6.13;4.57;;;18.40;99.90;;;;;;5035558;28;20273;-53
2022/08/05 05:56:25;;;;;;;8.17;5.50;;;18.50;99.90;;;;;;5030177;28;20285;-52
2022/08/05 05:59:02;;;;;;;8.33;5.03;;;18.70;99.90;;;;;;5036165;28;20234;-53
2022/08/05 06:01:33;;;;;;;6.17;5.40;;;18.70;99.90;;;;;;5035430;28;20634;-53
2022/08/05 06:04:06;;;;;;;7.53;5.50;;;18.70;99.90;;;;;;5035463;28;20234;-54
2022/08/05 06:06:35;;;;;;;7.27;5.57;;;18.70;99.90;;;;;;5035718;28;20261;-53
2022/08/05 06:09:05;;;;;;;7.67;5.40;;;18.70;99.90;;;;;;5033892;28;20307;-54
2022/08/05 06:11:35;;;;;;;6.77;5.20;;;18.70;99.90;;;;;;5033675;28;20711;-54
2022/08/05 06:14:06;;;;;;;7.63;5.33;;;18.80;99.90;;;;;;5035538;28;20238;-53
2022/08/05 06:16:34;;;;;;;7.03;5.33;;;18.80;99.90;;;;;;5035840;28;20250;-53
2022/08/05 06:19:05;;;;;;;7.87;5.63;;;19.00;99.90;;;;;;5029187;28;20744;-53
2022/08/05 06:21:36;;;;;;;6.47;4.80;;;19.30;99.90;;;;;;5016073;28;20258;-53
2022/08/05 06:24:10;;;;;;;6.33;4.70;;;19.60;99.90;;;;;;5028361;28;20693;-53
2022/08/05 06:26:42;;;;;;;7.13;4.70;;;19.80;99.90;;;;;;5031594;28;20237;-53
2022/08/05 06:29:19;;;;;;;8.57;4.93;;;19.80;99.90;;;;;;5020697;28;20616;-54
2022/08/05 06:32:08;;;;;;;7.03;4.10;;;19.70;99.90;;;;;;5032120;28;20227;-53
2022/08/05 06:34:52;;;;;;;4.60;3.70;;;19.50;99.90;;;;;;5035514;28;20712;-53
2022/08/05 06:37:25;;;;;;;5.60;4.43;;;19.60;99.90;;;;;;5035449;28;20717;-53
2022/08/05 06:40:15;;;;;;;5.90;3.73;;;19.50;99.90;;;;;;5030694;28;20229;-54
2022/08/05 06:42:49;;;;;;;7.13;4.30;;;19.40;99.90;;;;;;5028419;28;20277;-54
2022/08/05 06:45:21;;;;;;;5.33;3.33;;;19.40;99.90;;;;;;5035238;28;20246;-54
2022/08/05 06:48:09;;;;;;;5.17;3.67;;;19.40;99.90;;;;;;5032329;28;20223;-53
2022/08/05 06:50:57;;;;;;;6.30;3.30;;;19.30;99.90;;;;;;5026484;28;20234;-54
2022/08/05 06:53:27;;;;;;;5.80;3.40;;;19.20;99.90;;;;;;5023184;28;20237;-53
2022/08/05 06:55:59;;;;;;;6.87;3.13;;;19.10;99.90;;;;;;5033279;28;20235;-54
2022/08/05 06:58:28;;;;;;;4.33;3.13;;;19.10;99.90;;;;;;5034098;28;20318;-53
2022/08/05 07:01:05;;;;;;;5.30;3.07;;;19.20;99.90;;;;;;5033536;28;20245;-53
2022/08/05 07:03:35;;;;;;;4.60;2.70;;;19.10;99.90;;;;;;5033715;28;20232;-53
2022/08/05 07:06:04;;;;;;;3.10;2.27;;;19.10;99.90;;;;;;5027559;28;20218;-54
2022/08/05 07:08:42;;;;;;;4.13;2.83;;;19.10;99.90;;;;;;5035167;28;20281;-53
2022/08/05 07:11:20;;;;;;;5.40;2.40;;;19.00;99.90;;;;;;5034877;28;20682;-53
2022/08/05 07:16:59;;;;;;;3.77;2.40;;;18.90;99.90;;;;;;5033818;28;20254;-54
2022/08/05 07:19:49;;;;;;;5.17;2.57;;;18.90;99.90;;;;;;5033616;28;20230;-54
2022/08/05 07:22:37;;;;;;;8.33;2.60;;;18.80;99.90;;;;;;5033565;28;20703;-54
2022/08/05 07:25:07;;;;;;;5.20;2.83;;;18.70;99.90;;;;;;5023115;28;20265;-54
2022/08/05 07:27:54;;;;;;;4.90;2.40;;;18.70;99.90;;;;;;5031983;28;20722;-53
2022/08/05 07:30:30;;;;;;;5.30;2.43;;;18.60;99.90;;;;;;5031085;28;20880;-53
2022/08/05 07:33:02;;;;;;;6.23;2.13;;;18.60;99.90;;;;;;5030018;28;20234;-54
2022/08/05 07:35:32;;;;;;;7.50;2.70;;;18.70;99.90;;;;;;5023179;28;20272;-55
2022/08/05 07:38:20;;;;;;;3.37;2.30;;;18.60;99.90;;;;;;5026861;28;20691;-54
2022/08/05 07:41:04;;;;;;;4.20;2.23;;;18.60;99.90;;;;;;5030890;28;20227;-53
2022/08/05 07:43:54;;;;;;;4.13;2.63;;;18.60;99.90;;;;;;5025317;28;20222;-53
2022/08/05 07:46:24;;;;;;;3.60;2.60;;;18.70;99.90;;;;;;5027661;28;20282;-54
2022/08/05 07:48:54;;;;;;;3.03;2.20;;;18.60;99.90;;;;;;5034110;28;20235;-53
2022/08/05 07:51:36;;;;;;;5.40;2.47;;;18.70;99.90;;;;;;5033745;28;20238;-54
2022/08/05 07:54:16;;;;;;;6.17;2.57;;;18.70;99.90;;;;;;5029526;28;20235;-55
2022/08/05 07:56:46;;;;;;;5.10;2.53;;;18.80;99.90;;;;;;5030670;28;20599;-54
2022/08/05 07:59:35;;;;;;;6.17;2.43;;;18.80;99.90;;;;;;5028928;28;20327;-55
2022/08/05 08:02:09;;;;;;;4.63;2.37;;;18.90;99.90;;;;;;5033304;28;20242;-54
2022/08/05 08:04:46;;;;;;;5.57;2.30;;;18.80;99.90;;;;;;5033470;28;20656;-53
2022/08/05 08:07:16;;;;;;;3.87;2.40;;;18.80;99.90;;;;;;5032961;28;20313;-54
2022/08/05 08:09:50;;;;;;;5.20;2.33;;;18.80;99.90;;;;;;5032993;28;20752;-53
2022/08/05 08:12:20;;;;;;;3.13;2.50;;;18.80;99.90;;;;;;5033715;28;20689;-54
2022/08/05 08:15:11;;;;;;;3.27;2.70;;;18.80;99.90;;;;;;5033164;28;20665;-54
2022/08/05 08:17:43;;;;;;;7.00;3.20;;;18.80;99.90;;;;;;5033731;28;20645;-54
2022/08/05 08:20:21;;;;;;;7.07;3.40;;;18.80;99.90;;;;;;5033004;28;20229;-53
2022/08/05 08:23:10;;;;;;;5.50;2.90;;;18.80;99.90;;;;;;5032660;28;20726;-53
2022/08/05 08:25:58;;;;;;;3.93;2.80;;;18.70;99.90;;;;;;5025062;28;20233;-54
2022/08/05 08:28:32;;;;;;;7.10;3.00;;;18.80;99.90;;;;;;5030299;28;20741;-53
2022/08/05 08:31:10;;;;;;;4.10;2.73;;;18.80;99.90;;;;;;5032579;28;20234;-52
2022/08/05 08:33:44;;;;;;;4.77;2.90;;;18.70;99.90;;;;;;5033258;28;20588;-54
2022/08/05 08:36:18;;;;;;;4.20;2.93;;;18.80;99.90;;;;;;5033084;28;20586;-53
2022/08/05 08:39:07;;;;;;;4.70;2.77;;;18.80;99.90;;;;;;5032491;28;20228;-53
2022/08/05 08:41:44;;;;;;;7.90;2.83;;;18.90;99.90;;;;;;5030535;28;20736;-52
2022/08/05 08:44:28;;;;;;;5.00;2.70;;;19.00;99.90;;;;;;5030589;28;20221;-54
2022/08/05 08:47:22;;;;;;;3.97;2.90;;;19.10;99.90;;;;;;5029790;28;20240;-54
2022/08/05 08:50:12;;;;;;;4.57;2.90;;;19.20;99.90;;;;;;5031968;28;20229;-53
2022/08/05 08:53:04;;;;;;;5.37;3.30;;;19.20;99.90;;;;;;5030504;28;20223;-54
2022/08/05 08:55:40;;;;;;;4.47;2.73;;;19.20;99.90;;;;;;5030621;28;20305;-54
2022/08/05 08:58:28;;;;;;;5.03;3.13;;;19.20;99.90;;;;;;5016388;28;20237;-56
2022/08/05 09:01:11;;;;;;;3.40;2.57;;;19.30;99.90;;;;;;5017042;28;20244;-53
2022/08/05 09:03:46;;;;;;;3.93;2.50;;;19.30;99.90;;;;;;5017548;28;20658;-52
2022/08/05 09:06:15;;;;;;;3.80;2.50;;;19.30;99.90;;;;;;5015437;28;20714;-52
2022/08/05 09:08:51;;;;;;;5.40;2.77;;;19.30;99.90;;;;;;5017527;28;20799;-51
2022/08/05 09:11:19;;;;;;;4.03;2.50;;;19.30;99.90;;;;;;5016708;28;20231;-53
2022/08/05 09:14:07;;;;;;;4.30;2.83;;;19.20;99.90;;;;;;5017859;28;20230;-51
2022/08/05 09:16:55;;;;;;;4.83;2.77;;;19.20;99.90;;;;;;5013339;28;20788;-53
2022/08/05 09:19:27;;;;;;;5.13;2.80;;;19.20;99.90;;;;;;5017164;28;20235;-53
2022/08/05 09:22:15;;;;;;;3.33;2.60;;;19.20;99.90;;;;;;5017565;28;20231;-53
2022/08/05 09:25:00;;;;;;;3.00;2.43;;;19.20;99.90;;;;;;5016565;28;20235;-53
2022/08/05 09:27:33;;;;;;;4.10;2.20;;;19.30;99.90;;;;;;5013349;28;20690;-53
2022/08/05 09:30:22;;;;;;;2.87;2.13;;;19.30;99.90;;;;;;5016282;28;20233;-53
2022/08/05 09:32:50;;;;;;;2.30;2.03;;;19.50;99.90;;;;;;5016621;28;20234;-51
2022/08/05 09:35:21;;;;;;;3.33;2.00;;;19.50;99.90;;;;;;5017357;28;20241;-53
2022/08/05 09:37:57;;;;;;;5.03;2.30;;;19.50;99.90;;;;;;5014257;28;21687;-53
2022/08/05 09:40:46;;;;;;;4.67;2.57;;;19.40;99.90;;;;;;5017242;28;20238;-52
2022/08/05 09:43:27;;;;;;;2.70;2.00;;;19.30;99.90;;;;;;5016785;28;20235;-52
2022/08/05 09:46:25;;;;;;;3.87;2.43;;;19.30;99.90;;;;;;5014367;28;20745;-53
2022/08/05 09:48:55;;;;;;;3.67;2.20;;;19.20;99.90;;;;;;5016982;28;20285;-53
2022/08/05 09:51:45;;;;;;;4.43;2.17;;;19.10;99.90;;;;;;5016979;28;20242;-54
2022/08/05 09:54:17;;;;;;;5.23;2.50;;;19.10;99.90;;;;;;5017057;28;20231;-53
2022/08/05 09:56:56;;;;;;;4.40;2.07;;;19.10;99.90;;;;;;5013311;28;20719;-54
2022/08/05 09:59:29;;;;;;;5.57;2.37;;;19.00;99.90;;;;;;5016913;28;20234;-52
2022/08/05 10:02:05;;;;;;;5.27;2.70;;;19.00;99.90;;;;;;5016339;28;20256;-52
2022/08/05 10:04:39;;;;;;;3.63;2.40;;;19.00;99.90;;;;;;5020213;28;20708;-53
2022/08/05 10:07:09;;;;;;;4.47;2.03;;;19.00;99.90;;;;;;5017175;28;20779;-54
2022/08/05 10:09:57;;;;;;;4.80;2.10;;;19.00;99.90;;;;;;5019763;28;20225;-53
2022/08/05 10:12:44;;;;;;;3.40;2.30;;;18.90;99.90;;;;;;5031860;28;20238;-53
2022/08/05 10:15:25;;;;;;;3.90;2.50;;;18.90;99.90;;;;;;5031241;28;20691;-53
2022/08/05 10:18:11;;;;;;;2.87;2.20;;;18.90;99.90;;;;;;5035935;28;20229;-54
2022/08/05 10:20:43;;;;;;;6.27;2.10;;;18.90;99.90;;;;;;5035116;28;20252;-54
2022/08/05 10:23:19;;;;;;;4.97;2.03;;;18.80;99.90;;;;;;5028809;28;20301;-53
2022/08/05 10:26:08;;;;;;;4.43;2.30;;;18.80;99.90;;;;;;5031990;28;20224;-53
2022/08/05 10:28:42;;;;;;;5.53;2.50;;;18.80;99.90;;;;;;5027228;28;20753;-54
2022/08/05 10:31:13;;;;;;;2.60;2.17;;;18.70;99.90;;;;;;5027251;28;20245;-53
2022/08/05 10:34:02;;;;;;;3.57;2.47;;;18.70;99.90;;;;;;5034844;28;20714;-53
2022/08/05 10:36:30;;;;;;;4.60;2.60;;;18.60;99.90;;;;;;5034122;28;20231;-53
2022/08/05 10:39:05;;;;;;;3.47;2.30;;;18.70;99.90;;;;;;5031549;28;20280;-53
2022/08/05 10:41:50;;;;;;;5.50;2.90;;;18.70;99.90;;;;;;5031532;28;20234;-54
2022/08/05 10:44:22;;;;;;;3.73;2.40;;;18.80;99.90;;;;;;5027545;28;20229;-53
2022/08/05 10:46:51;;;;;;;3.53;2.40;;;18.90;99.90;;;;;;5025004;28;20859;-54
2022/08/05 10:49:22;;;;;;;5.33;2.33;;;18.90;99.90;;;;;;5031249;28;20725;-53
2022/08/05 10:52:01;;;;;;;3.40;2.40;;;18.80;99.90;;;;;;5030409;28;20237;-53
2022/08/05 10:55:03;;;;;;;5.27;2.50;;;18.80;99.90;;;;;;5031040;28;20254;-53
2022/08/05 10:57:31;;;;;;;4.43;2.47;;;18.80;99.90;;;;;;5033725;28;20875;-52
2022/08/05 11:00:14;;;;;;;3.63;2.37;;;18.80;99.90;;;;;;5034158;28;20238;-53
2022/08/05 11:03:09;;;;;;;4.07;2.43;;;18.80;99.90;;;;;;5034461;28;20230;-53
2022/08/05 11:06:05;;;;;;;4.03;2.20;;;18.80;99.90;;;;;;5033376;28;20253;-53
2022/08/05 11:08:36;;;;;;;4.33;2.17;;;18.80;99.90;;;;;;5034081;28;20253;-53
2022/08/05 11:11:34;;;;;;;3.87;2.30;;;18.90;99.90;;;;;;5034441;28;20227;-53
2022/08/05 11:14:28;;;;;;;4.57;1.87;;;18.90;99.90;;;;;;5027607;28;20227;-53
2022/08/05 11:17:28;;;;;;;3.10;2.00;;;18.80;99.90;;;;;;5034503;28;20310;-54
2022/08/05 11:20:36;;;;;;;3.63;2.20;;;18.80;99.90;;;;;;5034476;28;20233;-53
2022/08/05 11:23:34;;;;;;;4.73;2.00;;;18.80;99.90;;;;;;5034627;28;20233;-53
2022/08/05 11:26:23;;;;;;;2.83;2.10;;;18.80;99.90;;;;;;5028008;28;20722;-53
2022/08/05 11:29:02;;;;;;;2.90;2.23;;;18.90;99.90;;;;;;5034581;28;20228;-53
2022/08/05 11:31:44;;;;;;;2.90;1.77;;;18.90;99.90;;;;;;5033899;28;20718;-53
2022/08/05 11:34:38;;;;;;;3.53;2.20;;;19.00;99.90;;;;;;5031981;28;20229;-53
2022/08/05 11:37:43;;;;;;;4.67;2.10;;;19.00;99.90;;;;;;5033922;28;20228;-53
2022/08/05 11:40:57;;;;;;;3.80;2.23;;;19.10;99.90;;;;;;5033795;28;20701;-53
2022/08/05 11:43:44;;;;;;;3.63;2.13;;;19.10;99.90;;;;;;5031264;28;20330;-52
2022/08/05 11:46:36;;;;;;;3.57;2.33;;;19.10;99.90;;;;;;5030667;28;20261;-52
2022/08/05 11:49:06;;;;;;;4.73;2.47;;;19.10;99.90;;;;;;5033035;28;20262;-53
2022/08/05 11:51:37;;;;;;;4.83;2.23;;;19.10;99.90;;;;;;5032551;28;20238;-53
2022/08/05 11:54:23;;;;;;;3.27;2.10;;;19.20;99.90;;;;;;5018323;28;20235;-53
2022/08/05 11:57:02;;;;;;;6.00;2.13;;;19.30;99.90;;;;;;5017537;28;20592;-53
2022/08/05 11:59:40;;;;;;;4.60;1.80;;;19.30;99.90;;;;;;5017686;28;20242;-52
2022/08/05 12:02:25;;;;;;;5.27;2.30;;;19.40;99.90;;;;;;5013889;28;20291;-51
2022/08/05 12:04:59;;;;;;;4.47;2.10;;;19.50;99.90;;;;;;5028348;28;20238;-50
2022/08/05 12:07:34;;;;;;;3.40;1.80;;;19.70;99.90;;;;;;5027908;28;20224;-56
2022/08/05 12:10:25;;;;;;;3.03;2.07;;;19.70;99.90;;;;;;5022462;28;20226;-55
2022/08/05 12:13:13;;;;;;;2.20;2.00;;;19.80;99.90;;;;;;5016945;28;20288;-53
2022/08/05 12:15:45;;;;;;;3.13;2.10;;;20.00;99.90;;;;;;5021276;28;20253;-58
2022/08/05 12:18:28;;;;;;;4.33;1.93;;;20.30;99.90;;;;;;5023436;28;20712;-50
2022/08/05 12:21:10;;;;;;;4.37;1.90;;;20.50;99.90;;;;;;5020986;28;20231;-50
2022/08/05 12:23:39;;;;;;;4.90;2.20;;;20.90;99.90;;;;;;5016637;28;20784;-51
2022/08/05 12:26:10;;;;;;;3.83;2.00;;;21.40;99.90;;;;;;5019652;28;20720;-51
2022/08/05 12:28:38;;;;;;;3.23;1.67;;;21.70;99.90;;;;;;5019675;28;20315;-52
2022/08/05 12:31:09;;;;;;;4.23;1.97;;;21.90;99.90;;;;;;5018804;28;20239;-51
2022/08/05 12:33:51;;;;;;;2.63;1.70;;;22.00;99.90;;;;;;5016825;28;20277;-50
2022/08/05 12:36:20;;;;;;;3.80;2.07;;;22.20;99.90;;;;;;5020148;28;20623;-53
2022/08/05 12:38:52;;;;;;;4.07;2.00;;;22.40;99.90;;;;;;5018600;28;20236;-52
2022/08/05 12:41:21;;;;;;;2.23;1.60;;;22.50;99.90;;;;;;5023772;28;20232;-51
2022/08/05 12:44:02;;;;;;;2.37;1.70;;;22.60;99.90;;;;;;5014207;28;20235;-52
2022/08/05 12:46:32;;;;;;;2.63;1.93;;;22.60;99.90;;;;;;5014152;28;20794;-52
2022/08/05 12:49:07;;;;;;;4.27;2.17;;;22.70;99.90;;;;;;5016015;28;20758;-49
2022/08/05 12:51:45;;;;;;;2.33;1.50;;;22.80;99.90;;;;;;5015837;28;20302;-55
2022/08/05 12:54:35;;;;;;;2.70;1.50;;;22.70;99.90;;;;;;5016862;28;20230;-52
2022/08/05 12:57:05;;;;;;;2.30;1.60;;;22.60;99.90;;;;;;5034899;28;20242;-52
2022/08/05 12:59:44;;;;;;;1.47;1.37;;;22.60;99.90;;;;;;5016805;28;20578;-54
2022/08/05 13:02:36;;;;;;;2.90;1.77;;;22.40;99.90;;;;;;5013406;28;20239;-54
2022/08/05 13:05:09;;;;;;;2.80;1.80;;;22.20;99.90;;;;;;5017166;28;20243;-53
2022/08/05 13:07:42;;;;;;;4.27;2.23;;;21.90;99.90;;;;;;5016304;28;20607;-52
2022/08/05 13:10:31;;;;;;;3.77;2.17;;;21.80;99.90;;;;;;5016726;28;20240;-53
2022/08/05 13:12:59;;;;;;;3.63;1.90;;;21.70;99.90;;;;;;5014676;28;20232;-52
2022/08/05 13:15:30;;;;;;;2.03;1.83;;;21.60;99.90;;;;;;5017634;28;20724;-53
2022/08/05 13:18:16;;;;;;;4.07;1.87;;;21.60;99.90;;;;;;5017229;28;20236;-52
2022/08/05 13:20:49;;;;;;;3.67;2.40;;;21.60;99.90;;;;;;5017907;28;20718;-52
2022/08/05 13:23:17;;;;;;;2.87;2.07;;;21.60;99.90;;;;;;5029247;28;20231;-50
2022/08/05 13:25:50;;;;;;;4.70;2.50;;;21.50;99.90;;;;;;5022790;28;20565;-52
2022/08/05 13:28:28;;;;;;;3.83;2.40;;;21.50;99.90;;;;;;5026116;28;20228;-52
2022/08/05 13:30:59;;;;;;;4.50;2.57;;;21.50;99.90;;;;;;5012470;28;20237;-53
2022/08/05 13:33:42;;;;;;;4.40;2.70;;;21.50;99.90;;;;;;5025679;28;20223;-52
2022/08/05 13:36:32;;;;;;;4.87;2.40;;;21.50;99.90;;;;;;5027000;28;20596;-52
2022/08/05 13:39:00;;;;;;;3.43;2.40;;;21.50;99.90;;;;;;5036111;28;20228;-52
2022/08/05 13:41:36;;;;;;;5.17;2.57;;;21.60;99.90;;;;;;5036399;28;20688;-54
2022/08/05 13:44:05;;;;;;;3.97;2.83;;;21.80;99.90;;;;;;5025165;28;20248;-54
2022/08/05 13:46:37;;;;;;;4.27;2.57;;;21.90;99.90;;;;;;5016455;28;20233;-54